UAL573 KEWR-KFLL
Flight info
| Callsign | UAL573 |
|---|---|
| Flight time | 2h 32m |
| Altitude | 34000 |
| Route | ELVAE NECCK WHITE Q409 CRPLR KOOKI Q161 CHIEZ Y291 MAJIK CUUDA3 |
| Aircraft | B739/M-SDE2E3FGHIRWXY/LB1 |
Departure
| Time | 2026-05-04 23:36 |
|---|---|
| Airport | Newark Liberty International Airport (KEWR) |
Arrival
| Time | 2026-05-05 02:09 |
|---|---|
| Airport | Fort Lauderdale Hollywood International Airport (KFLL) |
| Time | Latitude | Longitude | Altitude | Speed | Heading |
|---|---|---|---|---|---|
| 2026-05-04 23:00 | 40.69604 | -74.17352 | 40 ft | 0 kts | 142° |
| 2026-05-04 23:26 | 40.69618 | -74.17366 | 22 ft | 4 kts | 130° |
| 2026-05-04 23:26 | 40.69629 | -74.17395 | 25 ft | 4 kts | 86° |
| 2026-05-04 23:26 | 40.69621 | -74.17421 | 22 ft | 1 kts | 40° |
| 2026-05-04 23:26 | 40.69617 | -74.17426 | 21 ft | 0 kts | 40° |
| 2026-05-04 23:31 | 40.69621 | -74.17421 | 22 ft | 3 kts | 40° |
| 2026-05-04 23:31 | 40.69662 | -74.17375 | 21 ft | 10 kts | 40° |
| 2026-05-04 23:31 | 40.69710 | -74.17309 | 21 ft | 10 kts | 68° |
| 2026-05-04 23:32 | 40.69739 | -74.17230 | 21 ft | 10 kts | 53° |
| 2026-05-04 23:32 | 40.69777 | -74.17159 | 21 ft | 9 kts | 77° |
| 2026-05-04 23:32 | 40.69741 | -74.17092 | 21 ft | 9 kts | 144° |
| 2026-05-04 23:32 | 40.69687 | -74.17050 | 21 ft | 9 kts | 154° |
| 2026-05-04 23:33 | 40.69634 | -74.17008 | 21 ft | 9 kts | 122° |
| 2026-05-04 23:33 | 40.69642 | -74.16922 | 21 ft | 11 kts | 71° |
| 2026-05-04 23:33 | 40.69669 | -74.16817 | 21 ft | 13 kts | 71° |
| 2026-05-04 23:33 | 40.69721 | -74.16718 | 22 ft | 14 kts | 29° |
| 2026-05-04 23:34 | 40.69805 | -74.16664 | 20 ft | 13 kts | 26° |
| 2026-05-04 23:34 | 40.69885 | -74.16612 | 21 ft | 13 kts | 26° |
| 2026-05-04 23:34 | 40.69956 | -74.16568 | 20 ft | 11 kts | 25° |
| 2026-05-04 23:34 | 40.70022 | -74.16525 | 20 ft | 10 kts | 27° |
| 2026-05-04 23:35 | 40.70063 | -74.16475 | 20 ft | 7 kts | 72° |
| 2026-05-04 23:35 | 40.70059 | -74.16407 | 21 ft | 8 kts | 110° |
| 2026-05-04 23:35 | 40.70005 | -74.16380 | 18 ft | 10 kts | 193° |
| 2026-05-04 23:35 | 40.69929 | -74.16425 | 18 ft | 19 kts | 206° |
| 2026-05-04 23:36 | 40.69606 | -74.16631 | 22 ft | 84 kts | 206° |
| 2026-05-04 23:36 | 40.68911 | -74.17073 | 23 ft | 138 kts | 205° |
| 2026-05-04 23:36 | 40.67924 | -74.17689 | 228 ft | 165 kts | 206° |
| 2026-05-04 23:36 | 40.66876 | -74.18291 | 893 ft | 166 kts | 200° |
| 2026-05-04 23:37 | 40.65764 | -74.18777 | 1568 ft | 167 kts | 201° |
| 2026-05-04 23:37 | 40.64718 | -74.19463 | 2124 ft | 177 kts | 214° |
| 2026-05-04 23:37 | 40.63587 | -74.20363 | 2350 ft | 202 kts | 211° |
| 2026-05-04 23:37 | 40.62323 | -74.21365 | 2472 ft | 218 kts | 213° |
| 2026-05-04 23:38 | 40.61036 | -74.22410 | 2481 ft | 220 kts | 213° |
| 2026-05-04 23:38 | 40.59671 | -74.23517 | 2696 ft | 242 kts | 212° |
| 2026-05-04 23:38 | 40.58226 | -74.24682 | 3523 ft | 243 kts | 212° |
| 2026-05-04 23:38 | 40.56772 | -74.25852 | 4345 ft | 246 kts | 213° |
| 2026-05-04 23:39 | 40.55232 | -74.26897 | 5086 ft | 254 kts | 197° |
| 2026-05-04 23:39 | 40.53432 | -74.26971 | 5755 ft | 268 kts | 174° |
| 2026-05-04 23:39 | 40.51606 | -74.26303 | 5979 ft | 275 kts | 164° |
| 2026-05-04 23:39 | 40.49811 | -74.25394 | 5997 ft | 277 kts | 162° |
| 2026-05-04 23:40 | 40.48024 | -74.24450 | 5994 ft | 277 kts | 162° |
| 2026-05-04 23:40 | 40.46253 | -74.23524 | 5999 ft | 277 kts | 162° |
| 2026-05-04 23:40 | 40.44462 | -74.22604 | 6012 ft | 277 kts | 162° |
| 2026-05-04 23:40 | 40.42661 | -74.21692 | 6005 ft | 277 kts | 163° |
| 2026-05-04 23:41 | 40.40856 | -74.20787 | 6015 ft | 278 kts | 163° |
| 2026-05-04 23:41 | 40.39051 | -74.19887 | 6038 ft | 278 kts | 163° |
| 2026-05-04 23:41 | 40.38028 | -74.19380 | 6093 ft | 281 kts | 163° |
| 2026-05-04 23:41 | 40.37863 | -74.19298 | 6110 ft | 281 kts | 163° |
| 2026-05-04 23:42 | 40.36339 | -74.18543 | 6607 ft | 284 kts | 163° |
| 2026-05-04 23:42 | 40.35020 | -74.17891 | 7176 ft | 285 kts | 163° |
| 2026-05-04 23:42 | 40.33129 | -74.16957 | 7926 ft | 289 kts | 163° |
| 2026-05-04 23:43 | 40.31627 | -74.16310 | 8448 ft | 291 kts | 174° |
| 2026-05-04 23:43 | 40.30835 | -74.16212 | 8713 ft | 288 kts | 187° |
| 2026-05-04 23:43 | 40.28863 | -74.16615 | 9438 ft | 287 kts | 197° |
| 2026-05-04 23:44 | 40.26917 | -74.17201 | 10082 ft | 292 kts | 198° |
| 2026-05-04 23:44 | 40.24894 | -74.17834 | 10432 ft | 309 kts | 198° |
| 2026-05-04 23:44 | 40.22723 | -74.18514 | 10599 ft | 331 kts | 198° |
| 2026-05-04 23:44 | 40.20409 | -74.19228 | 10794 ft | 351 kts | 197° |
| 2026-05-04 23:45 | 40.18875 | -74.19693 | 11059 ft | 358 kts | 197° |
| 2026-05-04 23:45 | 40.17893 | -74.19989 | 11287 ft | 360 kts | 197° |
| 2026-05-04 23:45 | 40.16381 | -74.20440 | 11702 ft | 362 kts | 197° |
| 2026-05-04 23:46 | 40.14001 | -74.21147 | 12404 ft | 363 kts | 197° |
| 2026-05-04 23:46 | 40.11531 | -74.21880 | 13114 ft | 365 kts | 197° |
| 2026-05-04 23:46 | 40.09049 | -74.22618 | 13780 ft | 367 kts | 198° |
| 2026-05-04 23:46 | 40.06545 | -74.23363 | 14362 ft | 371 kts | 198° |
| 2026-05-04 23:47 | 40.04016 | -74.24116 | 14911 ft | 374 kts | 197° |
| 2026-05-04 23:47 | 40.01506 | -74.25039 | 15470 ft | 374 kts | 206° |
| 2026-05-04 23:47 | 39.99172 | -74.26512 | 16051 ft | 372 kts | 216° |
| 2026-05-04 23:47 | 39.97051 | -74.28451 | 16603 ft | 372 kts | 220° |
| 2026-05-04 23:48 | 39.94972 | -74.30477 | 17150 ft | 375 kts | 221° |
| 2026-05-04 23:48 | 39.92868 | -74.32529 | 17689 ft | 379 kts | 221° |
| 2026-05-04 23:48 | 39.90771 | -74.34557 | 18219 ft | 382 kts | 220° |
| 2026-05-04 23:48 | 39.88622 | -74.36618 | 18700 ft | 385 kts | 220° |
| 2026-05-04 23:49 | 39.86450 | -74.38689 | 19175 ft | 388 kts | 220° |
| 2026-05-04 23:49 | 39.84254 | -74.40775 | 19618 ft | 392 kts | 220° |
| 2026-05-04 23:49 | 39.82047 | -74.42887 | 20045 ft | 396 kts | 221° |
| 2026-05-04 23:49 | 39.79985 | -74.45262 | 20496 ft | 395 kts | 229° |
| 2026-05-04 23:50 | 39.78052 | -74.47824 | 20965 ft | 398 kts | 230° |
| 2026-05-04 23:50 | 39.76130 | -74.50434 | 21408 ft | 401 kts | 230° |
| 2026-05-04 23:50 | 39.74194 | -74.53066 | 21845 ft | 405 kts | 230° |
| 2026-05-04 23:50 | 39.72232 | -74.55715 | 22288 ft | 408 kts | 230° |
| 2026-05-04 23:51 | 39.70250 | -74.58371 | 22739 ft | 411 kts | 230° |
| 2026-05-04 23:51 | 39.68245 | -74.61041 | 23177 ft | 415 kts | 229° |
| 2026-05-04 23:51 | 39.66218 | -74.63729 | 23583 ft | 418 kts | 229° |
| 2026-05-04 23:51 | 39.64200 | -74.66397 | 23934 ft | 421 kts | 229° |
| 2026-05-04 23:52 | 39.62144 | -74.69111 | 24316 ft | 423 kts | 229° |
| 2026-05-04 23:52 | 39.60075 | -74.71837 | 24685 ft | 425 kts | 229° |
| 2026-05-04 23:52 | 39.57994 | -74.74579 | 25052 ft | 427 kts | 229° |
| 2026-05-04 23:52 | 39.55900 | -74.77334 | 25408 ft | 430 kts | 229° |
| 2026-05-04 23:53 | 39.53794 | -74.80104 | 25760 ft | 432 kts | 229° |
| 2026-05-04 23:53 | 39.51674 | -74.82889 | 26104 ft | 435 kts | 229° |
| 2026-05-04 23:53 | 39.49546 | -74.85683 | 26444 ft | 437 kts | 229° |
| 2026-05-04 23:53 | 39.47401 | -74.88498 | 26775 ft | 439 kts | 229° |
| 2026-05-04 23:54 | 39.45248 | -74.91319 | 27133 ft | 441 kts | 229° |
| 2026-05-04 23:54 | 39.43085 | -74.94150 | 27463 ft | 443 kts | 229° |
| 2026-05-04 23:54 | 39.40908 | -74.96998 | 27778 ft | 446 kts | 228° |
| 2026-05-04 23:54 | 39.38720 | -74.99858 | 28095 ft | 448 kts | 228° |
| 2026-05-04 23:55 | 39.36520 | -75.02730 | 28410 ft | 450 kts | 228° |
| 2026-05-04 23:55 | 39.35058 | -75.04638 | 28636 ft | 451 kts | 228° |
| 2026-05-04 23:55 | 39.30640 | -75.10394 | 29513 ft | 450 kts | 228° |
| 2026-05-04 23:56 | 39.27673 | -75.14119 | 30084 ft | 449 kts | 225° |
| 2026-05-04 23:56 | 39.25355 | -75.16821 | 30461 ft | 448 kts | 224° |
| 2026-05-04 23:56 | 39.23781 | -75.18621 | 30706 ft | 447 kts | 224° |
| 2026-05-04 23:56 | 39.21453 | -75.21278 | 31055 ft | 447 kts | 224° |
| 2026-05-04 23:57 | 39.19160 | -75.23914 | 31380 ft | 446 kts | 224° |
| 2026-05-04 23:57 | 39.16858 | -75.26579 | 31747 ft | 444 kts | 224° |
| 2026-05-04 23:57 | 39.14564 | -75.29249 | 32077 ft | 443 kts | 225° |
| 2026-05-04 23:57 | 39.12279 | -75.31913 | 32404 ft | 442 kts | 225° |
| 2026-05-04 23:58 | 39.09997 | -75.34574 | 32721 ft | 442 kts | 225° |
| 2026-05-04 23:58 | 39.07727 | -75.37217 | 33132 ft | 438 kts | 225° |
| 2026-05-04 23:58 | 39.05473 | -75.39834 | 33561 ft | 435 kts | 224° |
| 2026-05-04 23:58 | 39.03087 | -75.42170 | 33830 ft | 439 kts | 213° |
| 2026-05-04 23:59 | 39.00313 | -75.43875 | 33900 ft | 445 kts | 202° |
| 2026-05-04 23:59 | 38.97295 | -75.44890 | 33922 ft | 452 kts | 191° |
| 2026-05-04 23:59 | 38.94164 | -75.45348 | 33928 ft | 453 kts | 188° |
| 2026-05-05 00:00 | 38.87885 | -75.46097 | 33919 ft | 451 kts | 188° |
| 2026-05-05 00:00 | 38.81651 | -75.46915 | 33935 ft | 449 kts | 189° |
| 2026-05-05 00:01 | 38.75494 | -75.47779 | 33964 ft | 447 kts | 189° |
| 2026-05-05 00:01 | 38.69308 | -75.48638 | 33961 ft | 446 kts | 189° |
| 2026-05-05 00:02 | 38.63141 | -75.49469 | 33962 ft | 445 kts | 189° |
| 2026-05-05 00:02 | 38.56981 | -75.50296 | 33967 ft | 445 kts | 189° |
| 2026-05-05 00:03 | 38.50819 | -75.51126 | 33970 ft | 445 kts | 189° |
| 2026-05-05 00:03 | 38.44641 | -75.51958 | 33947 ft | 446 kts | 189° |
| 2026-05-05 00:04 | 38.38466 | -75.52788 | 33968 ft | 446 kts | 190° |
| 2026-05-05 00:04 | 38.32573 | -75.54849 | 33976 ft | 436 kts | 208° |
| 2026-05-05 00:05 | 38.27449 | -75.58867 | 33992 ft | 432 kts | 218° |
| 2026-05-05 00:05 | 38.22553 | -75.63223 | 33959 ft | 432 kts | 218° |
| 2026-05-05 00:06 | 38.17604 | -75.67583 | 33972 ft | 433 kts | 218° |
| 2026-05-05 00:06 | 38.12640 | -75.71910 | 33972 ft | 433 kts | 218° |
| 2026-05-05 00:07 | 38.07663 | -75.76225 | 33971 ft | 433 kts | 218° |
| 2026-05-05 00:07 | 38.02690 | -75.80528 | 33967 ft | 433 kts | 218° |
| 2026-05-05 00:08 | 37.97720 | -75.84822 | 33967 ft | 432 kts | 218° |
| 2026-05-05 00:08 | 37.92749 | -75.89112 | 33980 ft | 432 kts | 218° |
| 2026-05-05 00:09 | 37.87810 | -75.93366 | 33975 ft | 432 kts | 218° |
| 2026-05-05 00:09 | 37.82838 | -75.97642 | 33973 ft | 432 kts | 218° |
| 2026-05-05 00:10 | 37.77873 | -76.01905 | 33964 ft | 431 kts | 218° |
| 2026-05-05 00:10 | 37.72908 | -76.06162 | 33965 ft | 429 kts | 218° |
| 2026-05-05 00:11 | 37.67973 | -76.10386 | 33971 ft | 428 kts | 218° |
| 2026-05-05 00:11 | 37.63045 | -76.14591 | 33977 ft | 427 kts | 217° |
| 2026-05-05 00:12 | 37.57596 | -76.17723 | 33968 ft | 437 kts | 199° |
| 2026-05-05 00:12 | 37.51685 | -76.19579 | 33978 ft | 438 kts | 198° |
| 2026-05-05 00:13 | 37.45787 | -76.21399 | 33982 ft | 440 kts | 198° |
| 2026-05-05 00:13 | 37.39833 | -76.23270 | 33975 ft | 441 kts | 198° |
| 2026-05-05 00:14 | 37.33872 | -76.25163 | 33972 ft | 442 kts | 199° |
| 2026-05-05 00:14 | 37.27916 | -76.27057 | 33974 ft | 441 kts | 199° |
| 2026-05-05 00:15 | 37.21978 | -76.28943 | 33970 ft | 439 kts | 199° |
| 2026-05-05 00:15 | 37.16064 | -76.30817 | 33968 ft | 437 kts | 199° |
| 2026-05-05 00:16 | 37.10194 | -76.32673 | 33960 ft | 433 kts | 200° |
| 2026-05-05 00:16 | 37.04415 | -76.34499 | 33966 ft | 429 kts | 200° |
| 2026-05-05 00:17 | 36.98652 | -76.36317 | 33984 ft | 425 kts | 200° |
| 2026-05-05 00:17 | 36.92925 | -76.38121 | 33985 ft | 423 kts | 200° |
| 2026-05-05 00:18 | 36.87250 | -76.39906 | 33994 ft | 419 kts | 200° |
| 2026-05-05 00:18 | 36.81600 | -76.41681 | 34013 ft | 418 kts | 200° |
| 2026-05-05 00:19 | 36.75957 | -76.43452 | 34011 ft | 418 kts | 200° |
| 2026-05-05 00:19 | 36.70339 | -76.45213 | 34009 ft | 419 kts | 200° |
| 2026-05-05 00:20 | 36.64688 | -76.46979 | 34006 ft | 419 kts | 200° |
| 2026-05-05 00:20 | 36.59022 | -76.48748 | 34019 ft | 420 kts | 200° |
| 2026-05-05 00:21 | 36.53354 | -76.50515 | 34044 ft | 420 kts | 200° |
| 2026-05-05 00:21 | 36.47631 | -76.52299 | 34023 ft | 427 kts | 200° |
| 2026-05-05 00:22 | 36.41867 | -76.54088 | 34008 ft | 424 kts | 200° |
| 2026-05-05 00:22 | 36.36225 | -76.55833 | 34017 ft | 418 kts | 200° |
| 2026-05-05 00:23 | 36.30577 | -76.57585 | 34038 ft | 420 kts | 200° |
| 2026-05-05 00:23 | 36.24872 | -76.59353 | 34050 ft | 423 kts | 200° |
| 2026-05-05 00:24 | 36.19145 | -76.61123 | 34042 ft | 425 kts | 200° |
| 2026-05-05 00:24 | 36.13388 | -76.62897 | 34060 ft | 426 kts | 200° |
| 2026-05-05 00:25 | 36.07630 | -76.64670 | 34069 ft | 427 kts | 200° |
| 2026-05-05 00:25 | 36.01899 | -76.66432 | 34062 ft | 427 kts | 200° |
| 2026-05-05 00:26 | 35.96132 | -76.68203 | 34060 ft | 426 kts | 200° |
| 2026-05-05 00:26 | 35.90417 | -76.70061 | 34051 ft | 421 kts | 206° |
| 2026-05-05 00:27 | 35.85181 | -76.73119 | 34050 ft | 415 kts | 213° |
| 2026-05-05 00:27 | 35.80026 | -76.76345 | 34058 ft | 416 kts | 212° |
| 2026-05-05 00:28 | 35.74876 | -76.79518 | 34024 ft | 417 kts | 212° |
| 2026-05-05 00:28 | 35.69672 | -76.82694 | 34054 ft | 418 kts | 212° |
| 2026-05-05 00:29 | 35.64451 | -76.85874 | 34053 ft | 419 kts | 212° |
| 2026-05-05 00:29 | 35.59222 | -76.89056 | 34073 ft | 420 kts | 212° |
| 2026-05-05 00:30 | 35.53983 | -76.92251 | 34074 ft | 420 kts | 212° |
| 2026-05-05 00:30 | 35.48752 | -76.95455 | 34067 ft | 421 kts | 212° |
| 2026-05-05 00:31 | 35.43498 | -76.98670 | 34076 ft | 421 kts | 212° |
| 2026-05-05 00:31 | 35.38251 | -77.01874 | 34068 ft | 421 kts | 212° |
| 2026-05-05 00:32 | 35.33036 | -77.05054 | 34070 ft | 421 kts | 212° |
| 2026-05-05 00:32 | 35.27787 | -77.08249 | 34069 ft | 421 kts | 212° |
| 2026-05-05 00:33 | 35.22535 | -77.11441 | 34067 ft | 421 kts | 212° |
| 2026-05-05 00:33 | 35.17287 | -77.14627 | 34069 ft | 421 kts | 212° |
| 2026-05-05 00:34 | 35.12048 | -77.17802 | 34089 ft | 420 kts | 212° |
| 2026-05-05 00:34 | 35.06806 | -77.20975 | 34072 ft | 420 kts | 212° |
| 2026-05-05 00:35 | 35.01574 | -77.24136 | 34091 ft | 419 kts | 212° |
| 2026-05-05 00:35 | 34.96342 | -77.27294 | 34090 ft | 419 kts | 212° |
| 2026-05-05 00:36 | 34.91146 | -77.30426 | 34085 ft | 420 kts | 212° |
| 2026-05-05 00:36 | 34.85905 | -77.33580 | 34091 ft | 420 kts | 212° |
| 2026-05-05 00:37 | 34.80666 | -77.36730 | 34088 ft | 419 kts | 212° |
| 2026-05-05 00:37 | 34.75424 | -77.39875 | 34090 ft | 420 kts | 212° |
| 2026-05-05 00:38 | 34.70185 | -77.43014 | 34094 ft | 420 kts | 212° |
| 2026-05-05 00:38 | 34.64926 | -77.46162 | 34093 ft | 421 kts | 212° |
| 2026-05-05 00:39 | 34.59673 | -77.49302 | 34076 ft | 421 kts | 212° |
| 2026-05-05 00:39 | 34.54447 | -77.52420 | 34088 ft | 421 kts | 212° |
| 2026-05-05 00:40 | 34.48862 | -77.54771 | 34088 ft | 432 kts | 196° |
| 2026-05-05 00:40 | 34.42932 | -77.56033 | 34091 ft | 433 kts | 196° |
| 2026-05-05 00:41 | 34.37000 | -77.57293 | 34088 ft | 433 kts | 196° |
| 2026-05-05 00:41 | 34.31079 | -77.58582 | 34084 ft | 432 kts | 197° |
| 2026-05-05 00:42 | 34.25193 | -77.59879 | 34090 ft | 432 kts | 197° |
| 2026-05-05 00:42 | 34.19273 | -77.61185 | 34093 ft | 432 kts | 197° |
| 2026-05-05 00:43 | 34.13351 | -77.62489 | 34093 ft | 432 kts | 197° |
| 2026-05-05 00:43 | 34.08038 | -77.63657 | 34084 ft | 432 kts | 197° |
| 2026-05-05 00:44 | 34.06904 | -77.63906 | 34087 ft | 432 kts | 197° |
| 2026-05-05 00:44 | 34.01990 | -77.64984 | 34089 ft | 432 kts | 197° |
| 2026-05-05 00:45 | 33.95120 | -77.66489 | 34101 ft | 431 kts | 197° |
| 2026-05-05 00:45 | 33.90171 | -77.67572 | 34097 ft | 432 kts | 197° |
| 2026-05-05 00:46 | 33.86914 | -77.68284 | 34098 ft | 432 kts | 197° |
| 2026-05-05 00:46 | 33.83373 | -77.69057 | 34085 ft | 431 kts | 197° |
| 2026-05-05 00:47 | 33.77472 | -77.70345 | 34094 ft | 431 kts | 197° |
| 2026-05-05 00:47 | 33.71572 | -77.71631 | 34093 ft | 430 kts | 197° |
| 2026-05-05 00:48 | 33.65712 | -77.73074 | 34098 ft | 427 kts | 200° |
| 2026-05-05 00:48 | 33.60011 | -77.74971 | 34087 ft | 425 kts | 202° |
| 2026-05-05 00:49 | 33.54329 | -77.76917 | 34093 ft | 424 kts | 201° |
| 2026-05-05 00:49 | 33.48638 | -77.78815 | 34108 ft | 424 kts | 201° |
| 2026-05-05 00:50 | 33.42947 | -77.80682 | 34110 ft | 424 kts | 201° |
| 2026-05-05 00:50 | 33.37285 | -77.82532 | 34103 ft | 424 kts | 201° |
| 2026-05-05 00:51 | 33.31595 | -77.84388 | 34099 ft | 423 kts | 201° |
| 2026-05-05 00:51 | 33.25904 | -77.86243 | 34108 ft | 424 kts | 201° |
| 2026-05-05 00:52 | 33.20202 | -77.88099 | 34110 ft | 424 kts | 201° |
| 2026-05-05 00:52 | 33.14541 | -77.89940 | 34109 ft | 425 kts | 201° |
| 2026-05-05 00:53 | 33.08832 | -77.91794 | 34089 ft | 425 kts | 201° |
| 2026-05-05 00:53 | 33.03113 | -77.93655 | 34107 ft | 425 kts | 201° |
| 2026-05-05 00:54 | 32.97428 | -77.95583 | 34107 ft | 424 kts | 202° |
| 2026-05-05 00:54 | 32.91746 | -77.97528 | 34106 ft | 425 kts | 201° |
| 2026-05-05 00:55 | 32.86056 | -77.99463 | 34110 ft | 425 kts | 201° |
| 2026-05-05 00:55 | 32.80399 | -78.01380 | 34114 ft | 425 kts | 201° |
| 2026-05-05 00:56 | 32.74696 | -78.03310 | 34112 ft | 426 kts | 201° |
| 2026-05-05 00:56 | 32.68983 | -78.05240 | 34114 ft | 426 kts | 201° |
| 2026-05-05 00:57 | 32.63280 | -78.07174 | 34118 ft | 426 kts | 201° |
| 2026-05-05 00:57 | 32.57574 | -78.09112 | 34095 ft | 426 kts | 202° |
| 2026-05-05 00:58 | 32.51919 | -78.11029 | 34105 ft | 425 kts | 202° |
| 2026-05-05 00:58 | 32.46228 | -78.12956 | 34114 ft | 425 kts | 202° |
| 2026-05-05 00:59 | 32.40550 | -78.14876 | 34111 ft | 424 kts | 202° |
| 2026-05-05 00:59 | 32.34876 | -78.16791 | 34112 ft | 423 kts | 202° |
| 2026-05-05 01:00 | 32.29221 | -78.18698 | 34115 ft | 421 kts | 202° |
| 2026-05-05 01:00 | 32.23590 | -78.20594 | 34118 ft | 420 kts | 202° |
| 2026-05-05 01:01 | 32.18011 | -78.22471 | 34114 ft | 418 kts | 202° |
| 2026-05-05 01:01 | 32.12416 | -78.24350 | 34116 ft | 417 kts | 202° |
| 2026-05-05 01:02 | 32.06833 | -78.26224 | 34073 ft | 416 kts | 202° |
| 2026-05-05 01:02 | 32.01276 | -78.28085 | 34103 ft | 414 kts | 203° |
| 2026-05-05 01:03 | 31.95743 | -78.29936 | 34117 ft | 412 kts | 203° |
| 2026-05-05 01:03 | 31.90228 | -78.31780 | 34120 ft | 411 kts | 203° |
| 2026-05-05 01:04 | 31.84730 | -78.33616 | 34116 ft | 410 kts | 203° |
| 2026-05-05 01:04 | 31.76504 | -78.36359 | 34109 ft | 409 kts | 203° |
| 2026-05-05 01:05 | 31.71028 | -78.38181 | 34119 ft | 409 kts | 203° |
| 2026-05-05 01:05 | 31.65545 | -78.40004 | 34120 ft | 409 kts | 203° |
| 2026-05-05 01:06 | 31.60058 | -78.41827 | 34121 ft | 410 kts | 203° |
| 2026-05-05 01:06 | 31.54604 | -78.43635 | 34074 ft | 410 kts | 204° |
| 2026-05-05 01:07 | 31.49102 | -78.45444 | 34105 ft | 410 kts | 204° |
| 2026-05-05 01:07 | 31.43597 | -78.47229 | 34118 ft | 410 kts | 203° |
| 2026-05-05 01:08 | 31.38086 | -78.49012 | 34120 ft | 411 kts | 203° |
| 2026-05-05 01:08 | 31.32573 | -78.50796 | 34119 ft | 411 kts | 203° |
| 2026-05-05 01:09 | 31.27053 | -78.52582 | 34089 ft | 411 kts | 203° |
| 2026-05-05 01:09 | 31.21581 | -78.54350 | 34107 ft | 410 kts | 203° |
| 2026-05-05 01:10 | 31.16077 | -78.56128 | 34113 ft | 410 kts | 203° |
| 2026-05-05 01:10 | 31.10571 | -78.57903 | 34113 ft | 410 kts | 203° |
| 2026-05-05 01:11 | 31.05065 | -78.59677 | 34112 ft | 411 kts | 203° |
| 2026-05-05 01:11 | 30.99559 | -78.61448 | 34091 ft | 410 kts | 203° |
| 2026-05-05 01:12 | 30.94050 | -78.63218 | 34111 ft | 410 kts | 203° |
| 2026-05-05 01:12 | 30.88539 | -78.64987 | 34118 ft | 411 kts | 203° |
| 2026-05-05 01:13 | 30.83022 | -78.66755 | 34118 ft | 411 kts | 203° |
| 2026-05-05 01:13 | 30.77530 | -78.68514 | 34121 ft | 412 kts | 203° |
| 2026-05-05 01:14 | 30.71995 | -78.70284 | 34094 ft | 412 kts | 203° |
| 2026-05-05 01:14 | 30.66455 | -78.72053 | 34108 ft | 413 kts | 203° |
| 2026-05-05 01:15 | 30.60901 | -78.73825 | 34118 ft | 414 kts | 203° |
| 2026-05-05 01:15 | 30.55328 | -78.75602 | 34118 ft | 416 kts | 203° |
| 2026-05-05 01:16 | 30.49737 | -78.77381 | 34116 ft | 417 kts | 203° |
| 2026-05-05 01:16 | 30.44134 | -78.79162 | 34108 ft | 417 kts | 203° |
| 2026-05-05 01:17 | 30.38562 | -78.80931 | 34108 ft | 418 kts | 203° |
| 2026-05-05 01:17 | 30.32945 | -78.82712 | 34115 ft | 419 kts | 202° |
| 2026-05-05 01:18 | 30.27314 | -78.84497 | 34111 ft | 419 kts | 202° |
| 2026-05-05 01:18 | 30.21681 | -78.86279 | 34108 ft | 420 kts | 202° |
| 2026-05-05 01:19 | 30.16044 | -78.88060 | 34109 ft | 420 kts | 202° |
| 2026-05-05 01:19 | 30.10415 | -78.89839 | 34112 ft | 419 kts | 202° |
| 2026-05-05 01:20 | 30.04820 | -78.91605 | 34110 ft | 419 kts | 202° |
| 2026-05-05 01:20 | 29.99194 | -78.93380 | 34113 ft | 418 kts | 202° |
| 2026-05-05 01:21 | 29.93580 | -78.95148 | 34110 ft | 417 kts | 202° |
| 2026-05-05 01:21 | 29.87973 | -78.96913 | 34104 ft | 417 kts | 202° |
| 2026-05-05 01:22 | 29.82363 | -78.98677 | 34112 ft | 418 kts | 202° |
| 2026-05-05 01:22 | 29.76682 | -79.00154 | 34111 ft | 425 kts | 197° |
| 2026-05-05 01:23 | 29.70806 | -79.01170 | 34111 ft | 428 kts | 196° |
| 2026-05-05 01:23 | 29.64898 | -79.02165 | 34072 ft | 429 kts | 196° |
| 2026-05-05 01:24 | 29.58980 | -79.03217 | 34098 ft | 430 kts | 196° |
| 2026-05-05 01:24 | 29.53063 | -79.04300 | 34110 ft | 431 kts | 197° |
| 2026-05-05 01:25 | 29.47165 | -79.05388 | 34103 ft | 432 kts | 197° |
| 2026-05-05 01:25 | 29.41214 | -79.06484 | 34106 ft | 433 kts | 197° |
| 2026-05-05 01:26 | 29.35256 | -79.07578 | 34084 ft | 433 kts | 196° |
| 2026-05-05 01:26 | 29.29339 | -79.08663 | 34095 ft | 433 kts | 196° |
| 2026-05-05 01:27 | 29.23341 | -79.09762 | 34100 ft | 434 kts | 196° |
| 2026-05-05 01:27 | 29.17415 | -79.10846 | 34098 ft | 434 kts | 196° |
| 2026-05-05 01:28 | 29.11450 | -79.11937 | 34096 ft | 434 kts | 196° |
| 2026-05-05 01:28 | 29.05483 | -79.13026 | 34094 ft | 433 kts | 196° |
| 2026-05-05 01:29 | 28.99514 | -79.14115 | 34093 ft | 434 kts | 196° |
| 2026-05-05 01:29 | 28.93539 | -79.15203 | 34095 ft | 435 kts | 196° |
| 2026-05-05 01:30 | 28.87591 | -79.16286 | 34093 ft | 435 kts | 196° |
| 2026-05-05 01:30 | 28.81601 | -79.17374 | 34091 ft | 436 kts | 196° |
| 2026-05-05 01:31 | 28.75605 | -79.18462 | 34081 ft | 436 kts | 196° |
| 2026-05-05 01:31 | 28.69609 | -79.19550 | 34088 ft | 436 kts | 196° |
| 2026-05-05 01:32 | 28.63641 | -79.20630 | 34085 ft | 437 kts | 196° |
| 2026-05-05 01:32 | 28.57627 | -79.21719 | 34084 ft | 437 kts | 196° |
| 2026-05-05 01:33 | 28.51609 | -79.22806 | 34054 ft | 438 kts | 196° |
| 2026-05-05 01:33 | 28.45586 | -79.23893 | 34075 ft | 437 kts | 196° |
| 2026-05-05 01:34 | 28.39614 | -79.24970 | 34083 ft | 438 kts | 196° |
| 2026-05-05 01:34 | 28.33592 | -79.26055 | 34082 ft | 438 kts | 196° |
| 2026-05-05 01:35 | 28.28679 | -79.27262 | 34078 ft | 431 kts | 202° |
| 2026-05-05 01:35 | 28.22946 | -79.29221 | 34043 ft | 430 kts | 204° |
| 2026-05-05 01:36 | 28.17226 | -79.31183 | 34066 ft | 430 kts | 203° |
| 2026-05-05 01:36 | 28.11475 | -79.33077 | 34078 ft | 430 kts | 203° |
| 2026-05-05 01:37 | 28.05704 | -79.34944 | 34069 ft | 431 kts | 203° |
| 2026-05-05 01:37 | 28.04189 | -79.35433 | 34071 ft | 430 kts | 203° |
| 2026-05-05 01:38 | 28.02683 | -79.35919 | 34070 ft | 428 kts | 203° |
| 2026-05-05 01:38 | 27.99866 | -79.36823 | 34050 ft | 414 kts | 203° |
| 2026-05-05 01:38 | 27.97102 | -79.37715 | 34079 ft | 415 kts | 203° |
| 2026-05-05 01:39 | 27.91491 | -79.39538 | 34070 ft | 424 kts | 203° |
| 2026-05-05 01:39 | 27.85767 | -79.41384 | 34066 ft | 427 kts | 203° |
| 2026-05-05 01:40 | 27.82944 | -79.42290 | 33685 ft | 424 kts | 203° |
| 2026-05-05 01:40 | 27.80135 | -79.43189 | 33256 ft | 418 kts | 203° |
| 2026-05-05 01:40 | 27.77351 | -79.44082 | 32803 ft | 413 kts | 203° |
| 2026-05-05 01:40 | 27.74598 | -79.44966 | 32316 ft | 410 kts | 203° |
| 2026-05-05 01:41 | 27.71862 | -79.45846 | 31851 ft | 406 kts | 203° |
| 2026-05-05 01:41 | 27.69154 | -79.46717 | 31384 ft | 403 kts | 203° |
| 2026-05-05 01:41 | 27.66468 | -79.47581 | 30911 ft | 400 kts | 203° |
| 2026-05-05 01:41 | 27.63799 | -79.48439 | 30448 ft | 397 kts | 204° |
| 2026-05-05 01:42 | 27.61151 | -79.49289 | 29981 ft | 394 kts | 204° |
| 2026-05-05 01:42 | 27.58518 | -79.50134 | 29466 ft | 391 kts | 204° |
| 2026-05-05 01:42 | 27.55914 | -79.50970 | 28974 ft | 388 kts | 203° |
| 2026-05-05 01:42 | 27.53328 | -79.51799 | 28495 ft | 385 kts | 203° |
| 2026-05-05 01:43 | 27.50788 | -79.52613 | 28028 ft | 382 kts | 203° |
| 2026-05-05 01:43 | 27.48235 | -79.53432 | 27536 ft | 380 kts | 203° |
| 2026-05-05 01:43 | 27.45696 | -79.54245 | 27076 ft | 378 kts | 203° |
| 2026-05-05 01:43 | 27.43177 | -79.55051 | 26624 ft | 375 kts | 203° |
| 2026-05-05 01:44 | 27.40675 | -79.55850 | 26188 ft | 373 kts | 202° |
| 2026-05-05 01:44 | 27.38179 | -79.56643 | 25706 ft | 372 kts | 202° |
| 2026-05-05 01:44 | 27.35698 | -79.57424 | 25288 ft | 369 kts | 202° |
| 2026-05-05 01:44 | 27.33231 | -79.58200 | 24865 ft | 367 kts | 202° |
| 2026-05-05 01:45 | 27.30772 | -79.58974 | 24437 ft | 366 kts | 202° |
| 2026-05-05 01:45 | 27.28322 | -79.59745 | 24008 ft | 365 kts | 202° |
| 2026-05-05 01:45 | 27.25887 | -79.60512 | 23586 ft | 363 kts | 202° |
| 2026-05-05 01:45 | 27.23455 | -79.61278 | 23101 ft | 361 kts | 201° |
| 2026-05-05 01:46 | 27.21045 | -79.62036 | 22666 ft | 358 kts | 201° |
| 2026-05-05 01:46 | 27.18650 | -79.62788 | 22241 ft | 355 kts | 202° |
| 2026-05-05 01:46 | 27.16280 | -79.63542 | 21839 ft | 352 kts | 202° |
| 2026-05-05 01:46 | 27.13960 | -79.64284 | 21438 ft | 350 kts | 202° |
| 2026-05-05 01:47 | 27.11626 | -79.65033 | 21049 ft | 347 kts | 202° |
| 2026-05-05 01:47 | 27.09313 | -79.65775 | 20647 ft | 345 kts | 202° |
| 2026-05-05 01:47 | 27.07011 | -79.66511 | 20243 ft | 342 kts | 202° |
| 2026-05-05 01:47 | 27.04729 | -79.67242 | 19861 ft | 340 kts | 202° |
| 2026-05-05 01:48 | 27.02463 | -79.67967 | 19478 ft | 338 kts | 202° |
| 2026-05-05 01:48 | 27.00206 | -79.68689 | 19101 ft | 336 kts | 202° |
| 2026-05-05 01:48 | 26.97967 | -79.69405 | 18719 ft | 334 kts | 202° |
| 2026-05-05 01:48 | 26.95728 | -79.70120 | 18318 ft | 333 kts | 202° |
| 2026-05-05 01:49 | 26.93505 | -79.70830 | 17884 ft | 332 kts | 201° |
| 2026-05-05 01:49 | 26.91292 | -79.71537 | 17479 ft | 329 kts | 201° |
| 2026-05-05 01:49 | 26.89096 | -79.72237 | 17081 ft | 327 kts | 201° |
| 2026-05-05 01:49 | 26.86915 | -79.72933 | 16691 ft | 325 kts | 201° |
| 2026-05-05 01:50 | 26.84774 | -79.73615 | 16310 ft | 323 kts | 200° |
| 2026-05-05 01:50 | 26.82617 | -79.74302 | 15937 ft | 321 kts | 200° |
| 2026-05-05 01:50 | 26.80478 | -79.74981 | 15568 ft | 319 kts | 200° |
| 2026-05-05 01:50 | 26.78352 | -79.75653 | 15189 ft | 317 kts | 199° |
| 2026-05-05 01:51 | 26.76236 | -79.76321 | 14832 ft | 315 kts | 199° |
| 2026-05-05 01:51 | 26.74136 | -79.76984 | 14465 ft | 313 kts | 199° |
| 2026-05-05 01:51 | 26.72046 | -79.77643 | 14111 ft | 311 kts | 199° |
| 2026-05-05 01:51 | 26.69963 | -79.78303 | 13743 ft | 310 kts | 199° |
| 2026-05-05 01:52 | 26.67928 | -79.79068 | 13328 ft | 308 kts | 202° |
| 2026-05-05 01:52 | 26.65928 | -79.79901 | 12960 ft | 306 kts | 203° |
| 2026-05-05 01:52 | 26.63943 | -79.80736 | 12586 ft | 304 kts | 203° |
| 2026-05-05 01:52 | 26.61966 | -79.81559 | 12217 ft | 302 kts | 202° |
| 2026-05-05 01:53 | 26.59997 | -79.82369 | 11855 ft | 300 kts | 202° |
| 2026-05-05 01:53 | 26.58064 | -79.83159 | 11499 ft | 299 kts | 202° |
| 2026-05-05 01:53 | 26.56089 | -79.83964 | 11139 ft | 298 kts | 202° |
| 2026-05-05 01:53 | 26.54185 | -79.84776 | 10755 ft | 298 kts | 204° |
| 2026-05-05 01:54 | 26.52266 | -79.85673 | 10358 ft | 299 kts | 205° |
| 2026-05-05 01:54 | 26.50377 | -79.86577 | 10112 ft | 293 kts | 205° |
| 2026-05-05 01:54 | 26.48521 | -79.87463 | 9967 ft | 284 kts | 205° |
| 2026-05-05 01:54 | 26.46744 | -79.88307 | 9873 ft | 272 kts | 205° |
| 2026-05-05 01:55 | 26.44967 | -79.89147 | 9272 ft | 275 kts | 205° |
| 2026-05-05 01:55 | 26.43212 | -79.89974 | 8854 ft | 271 kts | 205° |
| 2026-05-05 01:55 | 26.41493 | -79.90781 | 8565 ft | 267 kts | 204° |
| 2026-05-05 01:55 | 26.39788 | -79.91581 | 8265 ft | 265 kts | 204° |
| 2026-05-05 01:56 | 26.38094 | -79.92383 | 8012 ft | 263 kts | 207° |
| 2026-05-05 01:56 | 26.36503 | -79.93344 | 7854 ft | 257 kts | 213° |
| 2026-05-05 01:56 | 26.34973 | -79.94365 | 7656 ft | 256 kts | 211° |
| 2026-05-05 01:56 | 26.33439 | -79.95380 | 7527 ft | 256 kts | 211° |
| 2026-05-05 01:57 | 26.31896 | -79.96388 | 7385 ft | 258 kts | 211° |
| 2026-05-05 01:57 | 26.30329 | -79.97403 | 7226 ft | 262 kts | 211° |
| 2026-05-05 01:57 | 26.28761 | -79.98413 | 7046 ft | 265 kts | 210° |
| 2026-05-05 01:57 | 26.27165 | -79.99436 | 6894 ft | 265 kts | 210° |
| 2026-05-05 01:58 | 26.25571 | -80.00460 | 6740 ft | 264 kts | 210° |
| 2026-05-05 01:58 | 26.23984 | -80.01481 | 6571 ft | 262 kts | 210° |
| 2026-05-05 01:58 | 26.22408 | -80.02490 | 6425 ft | 260 kts | 210° |
| 2026-05-05 01:58 | 26.20838 | -80.03493 | 6249 ft | 260 kts | 211° |
| 2026-05-05 01:59 | 26.19276 | -80.04501 | 6087 ft | 259 kts | 212° |
| 2026-05-05 01:59 | 26.17982 | -80.05854 | 5903 ft | 256 kts | 239° |
| 2026-05-05 01:59 | 26.17260 | -80.07664 | 5804 ft | 257 kts | 251° |
| 2026-05-05 01:59 | 26.16695 | -80.09578 | 5634 ft | 262 kts | 252° |
| 2026-05-05 02:00 | 26.16141 | -80.11493 | 5470 ft | 264 kts | 252° |
| 2026-05-05 02:00 | 26.15569 | -80.13435 | 5309 ft | 265 kts | 251° |
| 2026-05-05 02:00 | 26.15025 | -80.15394 | 5146 ft | 266 kts | 259° |
| 2026-05-05 02:00 | 26.14926 | -80.17443 | 5003 ft | 265 kts | 271° |
| 2026-05-05 02:01 | 26.14972 | -80.19500 | 4839 ft | 266 kts | 270° |
| 2026-05-05 02:01 | 26.15009 | -80.21558 | 4667 ft | 266 kts | 270° |
| 2026-05-05 02:01 | 26.15036 | -80.23619 | 4500 ft | 265 kts | 270° |
| 2026-05-05 02:01 | 26.15056 | -80.25651 | 4327 ft | 260 kts | 270° |
| 2026-05-05 02:02 | 26.15070 | -80.27645 | 4117 ft | 256 kts | 270° |
| 2026-05-05 02:02 | 26.15079 | -80.29624 | 3864 ft | 254 kts | 270° |
| 2026-05-05 02:02 | 26.15088 | -80.31586 | 3625 ft | 252 kts | 270° |
| 2026-05-05 02:02 | 26.15095 | -80.33531 | 3371 ft | 250 kts | 270° |
| 2026-05-05 02:03 | 26.15042 | -80.35436 | 3154 ft | 242 kts | 258° |
| 2026-05-05 02:03 | 26.14293 | -80.37013 | 3013 ft | 223 kts | 220° |
| 2026-05-05 02:03 | 26.13048 | -80.37862 | 2994 ft | 201 kts | 194° |
| 2026-05-05 02:03 | 26.11684 | -80.38045 | 3006 ft | 198 kts | 170° |
| 2026-05-05 02:04 | 26.10391 | -80.37596 | 3008 ft | 193 kts | 147° |
| 2026-05-05 02:04 | 26.09361 | -80.36695 | 2991 ft | 186 kts | 127° |
| 2026-05-05 02:04 | 26.08699 | -80.35485 | 3002 ft | 182 kts | 116° |
| 2026-05-05 02:04 | 26.08120 | -80.34272 | 2991 ft | 174 kts | 116° |
| 2026-05-05 02:05 | 26.07815 | -80.33002 | 3002 ft | 169 kts | 90° |
| 2026-05-05 02:05 | 26.07800 | -80.31679 | 2724 ft | 184 kts | 91° |
| 2026-05-05 02:05 | 26.07780 | -80.30280 | 2475 ft | 178 kts | 90° |
| 2026-05-05 02:05 | 26.07771 | -80.28944 | 2241 ft | 165 kts | 90° |
| 2026-05-05 02:06 | 26.07763 | -80.27709 | 2013 ft | 153 kts | 90° |
| 2026-05-05 02:06 | 26.07756 | -80.26552 | 1853 ft | 148 kts | 90° |
| 2026-05-05 02:06 | 26.07749 | -80.25375 | 1622 ft | 154 kts | 89° |
| 2026-05-05 02:06 | 26.07742 | -80.24188 | 1430 ft | 150 kts | 89° |
| 2026-05-05 02:07 | 26.07732 | -80.23060 | 1187 ft | 143 kts | 90° |
| 2026-05-05 02:07 | 26.07705 | -80.21955 | 916 ft | 142 kts | 90° |
| 2026-05-05 02:07 | 26.07695 | -80.20871 | 762 ft | 139 kts | 89° |
| 2026-05-05 02:07 | 26.07701 | -80.19791 | 641 ft | 140 kts | 88° |
| 2026-05-05 02:08 | 26.07714 | -80.18692 | 476 ft | 144 kts | 89° |
| 2026-05-05 02:08 | 26.07707 | -80.17565 | 275 ft | 148 kts | 89° |
| 2026-05-05 02:08 | 26.07697 | -80.16414 | 84 ft | 148 kts | 89° |
| 2026-05-05 02:08 | 26.07693 | -80.15316 | 16 ft | 131 kts | 90° |
| 2026-05-05 02:09 | 26.07687 | -80.14546 | 18 ft | 60 kts | 89° |
| 2026-05-05 02:09 | 26.07688 | -80.14446 | 19 ft | 0 kts | 89° |